BAW50G EGLL-KBOS
Flight info
| Callsign | BAW50G |
|---|---|
| Flight time | N/A |
| Altitude | 24000 |
| Route | CPT L9 DIDZA N14 BIBPE/N0476F380 DCT OKTAD DCT MEDOG DCT VATRY DCT VENER/M083F380 DCT 5430N02000W 5430N03000W 54N040W 53N050W DCT RIKAL/N0477F380 N572A TOPPS DCT AJJAY OOSHN5 |
| Aircraft | B772/H-SDE2E3FGHIJ5LORVWXY/LB1D1 |
Departure
| Time | 2026-05-07 07:49 |
|---|---|
| Airport | London Heathrow Airport (EGLL) |
Arrival
| Time | N/A |
|---|---|
| Airport | Boston Logan International Airport (KBOS) |
| Time | Latitude | Longitude | Altitude | Speed | Heading |
|---|---|---|---|---|---|
| 2026-05-07 07:07 | 51.46915 | -0.48231 | 90 ft | 0 kts | 89° |
| 2026-05-07 07:38 | 51.46915 | -0.48234 | 90 ft | 2 kts | 90° |
| 2026-05-07 07:38 | 51.46917 | -0.48275 | 90 ft | 4 kts | 99° |
| 2026-05-07 07:38 | 51.46923 | -0.48317 | 91 ft | 4 kts | 115° |
| 2026-05-07 07:39 | 51.46938 | -0.48350 | 92 ft | 4 kts | 153° |
| 2026-05-07 07:39 | 51.46949 | -0.48356 | 90 ft | 1 kts | 180° |
| 2026-05-07 07:39 | 51.46950 | -0.48356 | 90 ft | 0 kts | 180° |
| 2026-05-07 07:43 | 51.46939 | -0.48356 | 94 ft | 2 kts | 179° |
| 2026-05-07 07:43 | 51.46927 | -0.48355 | 90 ft | 2 kts | 179° |
| 2026-05-07 07:44 | 51.46915 | -0.48355 | 94 ft | 2 kts | 179° |
| 2026-05-07 07:44 | 51.46884 | -0.48354 | 92 ft | 10 kts | 179° |
| 2026-05-07 07:44 | 51.46826 | -0.48354 | 90 ft | 5 kts | 180° |
| 2026-05-07 07:44 | 51.46796 | -0.48354 | 91 ft | 4 kts | 180° |
| 2026-05-07 07:45 | 51.46774 | -0.48354 | 91 ft | 4 kts | 180° |
| 2026-05-07 07:45 | 51.46746 | -0.48370 | 91 ft | 7 kts | 221° |
| 2026-05-07 07:45 | 51.46737 | -0.48468 | 92 ft | 9 kts | 273° |
| 2026-05-07 07:45 | 51.46739 | -0.48562 | 90 ft | 8 kts | 272° |
| 2026-05-07 07:46 | 51.46740 | -0.48645 | 90 ft | 7 kts | 269° |
| 2026-05-07 07:46 | 51.46733 | -0.48715 | 90 ft | 6 kts | 249° |
| 2026-05-07 07:46 | 51.46709 | -0.48747 | 92 ft | 4 kts | 200° |
| 2026-05-07 07:46 | 51.46686 | -0.48750 | 93 ft | 3 kts | 178° |
| 2026-05-07 07:47 | 51.46650 | -0.48748 | 91 ft | 6 kts | 182° |
| 2026-05-07 07:47 | 51.46614 | -0.48759 | 94 ft | 5 kts | 195° |
| 2026-05-07 07:47 | 51.46563 | -0.48784 | 93 ft | 9 kts | 191° |
| 2026-05-07 07:47 | 51.46509 | -0.48773 | 95 ft | 7 kts | 154° |
| 2026-05-07 07:48 | 51.46479 | -0.48691 | 94 ft | 10 kts | 98° |
| 2026-05-07 07:48 | 51.46479 | -0.48575 | 91 ft | 15 kts | 90° |
| 2026-05-07 07:48 | 51.46479 | -0.48164 | 92 ft | 69 kts | 90° |
| 2026-05-07 07:48 | 51.46484 | -0.46994 | 95 ft | 140 kts | 89° |
| 2026-05-07 07:49 | 51.46493 | -0.45154 | 352 ft | 175 kts | 88° |
| 2026-05-07 07:49 | 51.46530 | -0.43234 | 1279 ft | 170 kts | 90° |
| 2026-05-07 07:49 | 51.46473 | -0.41240 | 1766 ft | 193 kts | 103° |
| 2026-05-07 07:49 | 51.45917 | -0.39127 | 2021 ft | 221 kts | 126° |
| 2026-05-07 07:50 | 51.44732 | -0.37382 | 2347 ft | 242 kts | 152° |
| 2026-05-07 07:50 | 51.43919 | -0.36862 | 2634 ft | 248 kts | 167° |
| 2026-05-07 07:50 | 51.42819 | -0.36704 | 3073 ft | 252 kts | 186° |
| 2026-05-07 07:51 | 51.41166 | -0.37615 | 3773 ft | 255 kts | 216° |
| 2026-05-07 07:51 | 51.39987 | -0.39723 | 4515 ft | 257 kts | 244° |
| 2026-05-07 07:51 | 51.39588 | -0.42494 | 5289 ft | 258 kts | 272° |
| 2026-05-07 07:51 | 51.39911 | -0.45310 | 5900 ft | 259 kts | 284° |
| 2026-05-07 07:52 | 51.40357 | -0.48151 | 6526 ft | 266 kts | 283° |
| 2026-05-07 07:52 | 51.40783 | -0.51055 | 7189 ft | 269 kts | 282° |
| 2026-05-07 07:52 | 51.41185 | -0.53995 | 7866 ft | 271 kts | 282° |
| 2026-05-07 07:52 | 51.41566 | -0.56936 | 8508 ft | 274 kts | 281° |
| 2026-05-07 07:53 | 51.41771 | -0.58574 | 8808 ft | 278 kts | 281° |
| 2026-05-07 07:53 | 51.42001 | -0.60446 | 9189 ft | 279 kts | 281° |
| 2026-05-07 07:53 | 51.42283 | -0.62787 | 9626 ft | 283 kts | 281° |
| 2026-05-07 07:53 | 51.42654 | -0.65920 | 10193 ft | 287 kts | 281° |